sensor_id;sensor_type;location;lat;lon;timestamp;P1;durP1;ratioP1;P2;durP2;ratioP2
58972;SDS011;44750;52.040;7.472;2022-07-06T00:02:18;63.83;;;58.63;;
58972;SDS011;44750;52.040;7.472;2022-07-06T00:07:19;76.28;;;70.38;;
58972;SDS011;44750;52.040;7.472;2022-07-06T00:12:19;79.35;;;73.43;;
58972;SDS011;44750;52.040;7.472;2022-07-06T00:17:19;100.45;;;92.85;;
58972;SDS011;44750;52.040;7.472;2022-07-06T00:22:19;115.07;;;106.60;;
58972;SDS011;44750;52.040;7.472;2022-07-06T00:27:20;138.52;;;128.35;;
58972;SDS011;44750;52.040;7.472;2022-07-06T00:32:20;167.68;;;154.73;;
58972;SDS011;44750;52.040;7.472;2022-07-06T00:37:20;197.32;;;182.27;;
58972;SDS011;44750;52.040;7.472;2022-07-06T00:42:20;193.07;;;178.90;;
58972;SDS011;44750;52.040;7.472;2022-07-06T00:47:20;197.95;;;183.02;;
58972;SDS011;44750;52.040;7.472;2022-07-06T00:52:21;200.90;;;185.73;;
58972;SDS011;44750;52.040;7.472;2022-07-06T00:57:21;222.15;;;205.38;;
58972;SDS011;44750;52.040;7.472;2022-07-06T01:02:21;222.48;;;205.23;;
58972;SDS011;44750;52.040;7.472;2022-07-06T01:07:22;243.95;;;225.43;;
58972;SDS011;44750;52.040;7.472;2022-07-06T01:12:22;242.85;;;223.93;;
58972;SDS011;44750;52.040;7.472;2022-07-06T01:17:24;243.10;;;224.20;;
58972;SDS011;44750;52.040;7.472;2022-07-06T01:22:25;250.23;;;230.43;;
58972;SDS011;44750;52.040;7.472;2022-07-06T01:27:25;253.57;;;233.35;;
58972;SDS011;44750;52.040;7.472;2022-07-06T01:32:25;281.65;;;259.27;;
58972;SDS011;44750;52.040;7.472;2022-07-06T01:37:26;289.23;;;266.05;;
58972;SDS011;44750;52.040;7.472;2022-07-06T01:42:26;299.30;;;274.90;;
58972;SDS011;44750;52.040;7.472;2022-07-06T01:47:27;273.48;;;251.68;;
58972;SDS011;44750;52.040;7.472;2022-07-06T01:52:27;279.45;;;257.40;;
58972;SDS011;44750;52.040;7.472;2022-07-06T01:57:27;275.70;;;253.63;;
58972;SDS011;44750;52.040;7.472;2022-07-06T02:02:27;304.48;;;279.50;;
58972;SDS011;44750;52.040;7.472;2022-07-06T02:07:28;288.98;;;265.73;;
58972;SDS011;44750;52.040;7.472;2022-07-06T02:12:28;246.90;;;227.23;;
58972;SDS011;44750;52.040;7.472;2022-07-06T02:17:28;219.82;;;202.80;;
58972;SDS011;44750;52.040;7.472;2022-07-06T02:22:28;169.57;;;156.32;;
58972;SDS011;44750;52.040;7.472;2022-07-06T02:27:29;157.10;;;144.77;;
58972;SDS011;44750;52.040;7.472;2022-07-06T02:32:29;159.48;;;146.88;;
58972;SDS011;44750;52.040;7.472;2022-07-06T02:37:29;175.13;;;161.20;;
58972;SDS011;44750;52.040;7.472;2022-07-06T02:42:31;170.63;;;157.23;;
58972;SDS011;44750;52.040;7.472;2022-07-06T02:47:31;176.77;;;162.93;;
58972;SDS011;44750;52.040;7.472;2022-07-06T02:52:31;177.57;;;163.50;;
58972;SDS011;44750;52.040;7.472;2022-07-06T02:57:31;232.23;;;214.00;;
58972;SDS011;44750;52.040;7.472;2022-07-06T03:02:31;169.60;;;156.20;;
58972;SDS011;44750;52.040;7.472;2022-07-06T03:07:32;164.85;;;151.77;;
58972;SDS011;44750;52.040;7.472;2022-07-06T03:12:32;177.68;;;163.75;;
58972;SDS011;44750;52.040;7.472;2022-07-06T03:17:32;201.60;;;185.80;;
58972;SDS011;44750;52.040;7.472;2022-07-06T03:22:33;209.00;;;192.52;;
58972;SDS011;44750;52.040;7.472;2022-07-06T03:27:33;230.80;;;212.52;;
58972;SDS011;44750;52.040;7.472;2022-07-06T03:32:33;245.40;;;225.93;;
58972;SDS011;44750;52.040;7.472;2022-07-06T03:37:33;248.48;;;228.55;;
58972;SDS011;44750;52.040;7.472;2022-07-06T03:42:35;268.02;;;246.45;;
58972;SDS011;44750;52.040;7.472;2022-07-06T03:47:35;280.63;;;258.15;;
58972;SDS011;44750;52.040;7.472;2022-07-06T03:52:35;304.98;;;279.90;;
58972;SDS011;44750;52.040;7.472;2022-07-06T03:57:36;302.20;;;276.95;;
58972;SDS011;44750;52.040;7.472;2022-07-06T04:02:37;311.58;;;285.17;;
58972;SDS011;44750;52.040;7.472;2022-07-06T04:07:37;317.23;;;290.15;;
58972;SDS011;44750;52.040;7.472;2022-07-06T04:12:41;308.27;;;281.65;;
58972;SDS011;44750;52.040;7.472;2022-07-06T04:17:42;329.08;;;300.38;;
58972;SDS011;44750;52.040;7.472;2022-07-06T04:22:42;331.13;;;302.60;;
58972;SDS011;44750;52.040;7.472;2022-07-06T04:27:42;354.85;;;323.05;;
58972;SDS011;44750;52.040;7.472;2022-07-06T04:32:43;342.38;;;312.30;;
58972;SDS011;44750;52.040;7.472;2022-07-06T04:37:43;360.67;;;328.00;;
58972;SDS011;44750;52.040;7.472;2022-07-06T04:42:43;352.00;;;319.77;;
58972;SDS011;44750;52.040;7.472;2022-07-06T04:47:44;371.33;;;337.13;;
58972;SDS011;44750;52.040;7.472;2022-07-06T04:52:44;362.90;;;330.95;;
58972;SDS011;44750;52.040;7.472;2022-07-06T04:57:44;375.50;;;342.05;;
58972;SDS011;44750;52.040;7.472;2022-07-06T05:02:44;362.37;;;330.57;;
58972;SDS011;44750;52.040;7.472;2022-07-06T05:07:46;429.90;;;391.25;;
58972;SDS011;44750;52.040;7.472;2022-07-06T05:12:46;386.93;;;352.17;;
58972;SDS011;44750;52.040;7.472;2022-07-06T05:17:48;350.67;;;320.15;;
58972;SDS011;44750;52.040;7.472;2022-07-06T05:22:48;347.63;;;317.05;;
58972;SDS011;44750;52.040;7.472;2022-07-06T05:27:48;362.25;;;330.67;;
58972;SDS011;44750;52.040;7.472;2022-07-06T05:32:48;373.23;;;339.70;;
58972;SDS011;44750;52.040;7.472;2022-07-06T05:37:48;381.08;;;345.88;;
58972;SDS011;44750;52.040;7.472;2022-07-06T05:42:49;402.58;;;365.67;;
58972;SDS011;44750;52.040;7.472;2022-07-06T05:47:49;390.80;;;355.88;;
58972;SDS011;44750;52.040;7.472;2022-07-06T05:52:56;374.02;;;341.95;;
58972;SDS011;44750;52.040;7.472;2022-07-06T05:58:03;331.00;;;303.45;;
58972;SDS011;44750;52.040;7.472;2022-07-06T06:03:03;331.80;;;304.33;;
58972;SDS011;44750;52.040;7.472;2022-07-06T06:08:03;292.08;;;268.45;;
58972;SDS011;44750;52.040;7.472;2022-07-06T06:13:04;282.73;;;260.30;;
58972;SDS011;44750;52.040;7.472;2022-07-06T06:18:04;248.30;;;229.27;;
58972;SDS011;44750;52.040;7.472;2022-07-06T06:23:04;249.52;;;230.02;;
58972;SDS011;44750;52.040;7.472;2022-07-06T06:28:05;245.95;;;226.93;;
58972;SDS011;44750;52.040;7.472;2022-07-06T06:33:14;227.63;;;208.98;;
58972;SDS011;44750;52.040;7.472;2022-07-06T06:38:17;230.80;;;212.77;;
58972;SDS011;44750;52.040;7.472;2022-07-06T06:43:19;242.10;;;223.43;;
58972;SDS011;44750;52.040;7.472;2022-07-06T06:48:19;246.60;;;227.00;;
58972;SDS011;44750;52.040;7.472;2022-07-06T06:53:19;269.50;;;248.48;;
58972;SDS011;44750;52.040;7.472;2022-07-06T06:58:20;249.85;;;230.52;;
58972;SDS011;44750;52.040;7.472;2022-07-06T07:03:20;252.73;;;232.63;;
58972;SDS011;44750;52.040;7.472;2022-07-06T07:08:20;261.20;;;240.88;;
58972;SDS011;44750;52.040;7.472;2022-07-06T07:13:20;268.33;;;246.50;;
58972;SDS011;44750;52.040;7.472;2022-07-06T07:18:20;254.75;;;234.27;;
58972;SDS011;44750;52.040;7.472;2022-07-06T07:23:21;245.00;;;225.48;;
58972;SDS011;44750;52.040;7.472;2022-07-06T07:28:21;230.10;;;211.90;;
58972;SDS011;44750;52.040;7.472;2022-07-06T07:33:21;228.25;;;210.20;;
58972;SDS011;44750;52.040;7.472;2022-07-06T07:38:21;214.90;;;197.57;;
58972;SDS011;44750;52.040;7.472;2022-07-06T07:43:21;200.02;;;183.00;;
58972;SDS011;44750;52.040;7.472;2022-07-06T07:48:22;230.80;;;210.73;;
58972;SDS011;44750;52.040;7.472;2022-07-06T07:53:22;302.80;;;276.67;;
58972;SDS011;44750;52.040;7.472;2022-07-06T07:58:22;300.85;;;274.70;;
58972;SDS011;44750;52.040;7.472;2022-07-06T08:03:22;277.40;;;253.90;;
58972;SDS011;44750;52.040;7.472;2022-07-06T08:08:23;243.20;;;223.20;;
58972;SDS011;44750;52.040;7.472;2022-07-06T08:13:23;260.08;;;238.38;;
58972;SDS011;44750;52.040;7.472;2022-07-06T08:18:23;347.48;;;317.48;;
58972;SDS011;44750;52.040;7.472;2022-07-06T08:23:24;158.55;;;145.07;;
58972;SDS011;44750;52.040;7.472;2022-07-06T08:28:24;137.35;;;126.43;;
58972;SDS011;44750;52.040;7.472;2022-07-06T08:33:24;176.50;;;162.10;;
58972;SDS011;44750;52.040;7.472;2022-07-06T08:38:24;179.57;;;164.32;;
58972;SDS011;44750;52.040;7.472;2022-07-06T08:43:25;179.13;;;164.80;;
58972;SDS011;44750;52.040;7.472;2022-07-06T08:48:25;176.73;;;162.90;;
58972;SDS011;44750;52.040;7.472;2022-07-06T08:53:33;168.13;;;154.98;;
58972;SDS011;44750;52.040;7.472;2022-07-06T08:58:33;186.95;;;171.30;;
58972;SDS011;44750;52.040;7.472;2022-07-06T09:03:34;181.15;;;166.52;;
58972;SDS011;44750;52.040;7.472;2022-07-06T09:08:35;165.00;;;151.67;;
58972;SDS011;44750;52.040;7.472;2022-07-06T09:13:35;169.90;;;154.55;;
58972;SDS011;44750;52.040;7.472;2022-07-06T09:18:36;132.38;;;120.97;;
58972;SDS011;44750;52.040;7.472;2022-07-06T09:23:38;133.65;;;122.05;;
58972;SDS011;44750;52.040;7.472;2022-07-06T09:28:42;112.40;;;103.18;;
58972;SDS011;44750;52.040;7.472;2022-07-06T09:33:55;105.82;;;97.28;;
58972;SDS011;44750;52.040;7.472;2022-07-06T09:39:18;156.80;;;143.68;;
58972;SDS011;44750;52.040;7.472;2022-07-06T09:44:26;125.50;;;115.00;;
58972;SDS011;44750;52.040;7.472;2022-07-06T09:49:27;106.63;;;97.68;;
58972;SDS011;44750;52.040;7.472;2022-07-06T09:54:28;169.73;;;155.50;;
58972;SDS011;44750;52.040;7.472;2022-07-06T09:59:29;162.00;;;148.35;;
58972;SDS011;44750;52.040;7.472;2022-07-06T10:04:30;211.32;;;194.25;;
58972;SDS011;44750;52.040;7.472;2022-07-06T10:09:31;271.60;;;250.35;;
58972;SDS011;44750;52.040;7.472;2022-07-06T10:14:32;268.65;;;247.73;;
58972;SDS011;44750;52.040;7.472;2022-07-06T10:19:33;219.70;;;202.30;;
58972;SDS011;44750;52.040;7.472;2022-07-06T10:24:33;229.95;;;211.88;;
58972;SDS011;44750;52.040;7.472;2022-07-06T10:29:36;282.88;;;261.08;;
58972;SDS011;44750;52.040;7.472;2022-07-06T10:34:36;288.95;;;267.15;;
58972;SDS011;44750;52.040;7.472;2022-07-06T10:39:37;261.13;;;241.13;;
58972;SDS011;44750;52.040;7.472;2022-07-06T10:44:38;301.13;;;277.90;;
58972;SDS011;44750;52.040;7.472;2022-07-06T10:49:48;266.35;;;246.20;;
58972;SDS011;44750;52.040;7.472;2022-07-06T10:54:48;317.00;;;293.33;;
58972;SDS011;44750;52.040;7.472;2022-07-06T10:59:59;244.20;;;226.10;;
58972;SDS011;44750;52.040;7.472;2022-07-06T11:05:00;233.02;;;215.38;;
58972;SDS011;44750;52.040;7.472;2022-07-06T11:10:01;275.15;;;254.27;;
58972;SDS011;44750;52.040;7.472;2022-07-06T11:15:01;305.35;;;282.58;;
58972;SDS011;44750;52.040;7.472;2022-07-06T11:20:11;255.25;;;236.15;;
58972;SDS011;44750;52.040;7.472;2022-07-06T11:25:12;229.57;;;212.68;;
58972;SDS011;44750;52.040;7.472;2022-07-06T11:30:12;236.90;;;219.57;;
58972;SDS011;44750;52.040;7.472;2022-07-06T11:35:20;179.80;;;166.15;;
58972;SDS011;44750;52.040;7.472;2022-07-06T11:40:21;238.60;;;220.52;;
58972;SDS011;44750;52.040;7.472;2022-07-06T11:45:27;227.10;;;209.95;;
58972;SDS011;44750;52.040;7.472;2022-07-06T11:50:27;184.00;;;170.32;;
58972;SDS011;44750;52.040;7.472;2022-07-06T11:55:28;209.35;;;194.35;;
58972;SDS011;44750;52.040;7.472;2022-07-06T12:00:28;179.70;;;166.45;;
58972;SDS011;44750;52.040;7.472;2022-07-06T12:05:29;248.00;;;230.15;;
58972;SDS011;44750;52.040;7.472;2022-07-06T12:10:31;211.10;;;195.32;;
58972;SDS011;44750;52.040;7.472;2022-07-06T12:15:32;159.98;;;148.25;;
58972;SDS011;44750;52.040;7.472;2022-07-06T12:20:32;154.38;;;142.52;;
58972;SDS011;44750;52.040;7.472;2022-07-06T12:25:34;133.13;;;123.03;;
58972;SDS011;44750;52.040;7.472;2022-07-06T12:30:39;203.73;;;188.90;;
58972;SDS011;44750;52.040;7.472;2022-07-06T12:35:45;209.60;;;195.05;;
58972;SDS011;44750;52.040;7.472;2022-07-06T12:40:45;179.33;;;166.07;;
58972;SDS011;44750;52.040;7.472;2022-07-06T12:45:46;171.38;;;158.63;;
58972;SDS011;44750;52.040;7.472;2022-07-06T12:50:46;211.05;;;195.68;;
58972;SDS011;44750;52.040;7.472;2022-07-06T12:55:47;148.35;;;137.10;;
58972;SDS011;44750;52.040;7.472;2022-07-06T13:00:47;166.07;;;153.70;;
58972;SDS011;44750;52.040;7.472;2022-07-06T13:05:50;135.55;;;125.38;;
58972;SDS011;44750;52.040;7.472;2022-07-06T13:10:50;206.30;;;191.53;;
58972;SDS011;44750;52.040;7.472;2022-07-06T13:15:51;137.27;;;126.97;;
58972;SDS011;44750;52.040;7.472;2022-07-06T13:20:51;124.10;;;114.20;;
58972;SDS011;44750;52.040;7.472;2022-07-06T13:25:51;130.05;;;120.38;;
58972;SDS011;44750;52.040;7.472;2022-07-06T13:30:52;149.20;;;138.02;;
58972;SDS011;44750;52.040;7.472;2022-07-06T13:35:52;214.32;;;198.68;;
58972;SDS011;44750;52.040;7.472;2022-07-06T13:40:52;177.20;;;164.70;;
58972;SDS011;44750;52.040;7.472;2022-07-06T13:45:53;195.02;;;180.65;;
58972;SDS011;44750;52.040;7.472;2022-07-06T13:50:53;176.30;;;163.88;;
58972;SDS011;44750;52.040;7.472;2022-07-06T13:55:53;162.20;;;150.35;;
58972;SDS011;44750;52.040;7.472;2022-07-06T14:00:54;164.32;;;152.25;;
58972;SDS011;44750;52.040;7.472;2022-07-06T14:05:55;181.77;;;168.88;;
58972;SDS011;44750;52.040;7.472;2022-07-06T14:10:56;193.88;;;179.85;;
58972;SDS011;44750;52.040;7.472;2022-07-06T14:15:57;170.25;;;158.27;;
58972;SDS011;44750;52.040;7.472;2022-07-06T14:20:57;167.20;;;155.00;;
58972;SDS011;44750;52.040;7.472;2022-07-06T14:25:58;190.27;;;176.20;;
58972;SDS011;44750;52.040;7.472;2022-07-06T14:30:58;177.68;;;165.10;;
58972;SDS011;44750;52.040;7.472;2022-07-06T14:35:59;184.18;;;171.02;;
58972;SDS011;44750;52.040;7.472;2022-07-06T14:40:59;191.68;;;177.57;;
58972;SDS011;44750;52.040;7.472;2022-07-06T14:45:59;156.17;;;144.67;;
58972;SDS011;44750;52.040;7.472;2022-07-06T14:50:59;139.57;;;129.20;;
58972;SDS011;44750;52.040;7.472;2022-07-06T14:56:00;139.55;;;128.52;;
58972;SDS011;44750;52.040;7.472;2022-07-06T15:01:00;126.25;;;116.70;;
58972;SDS011;44750;52.040;7.472;2022-07-06T15:06:00;147.70;;;136.63;;
58972;SDS011;44750;52.040;7.472;2022-07-06T15:11:00;134.00;;;123.60;;
58972;SDS011;44750;52.040;7.472;2022-07-06T15:16:01;115.38;;;106.80;;
58972;SDS011;44750;52.040;7.472;2022-07-06T15:21:01;129.98;;;120.00;;
58972;SDS011;44750;52.040;7.472;2022-07-06T15:26:02;107.53;;;99.43;;
58972;SDS011;44750;52.040;7.472;2022-07-06T15:31:02;104.15;;;96.03;;
58972;SDS011;44750;52.040;7.472;2022-07-06T15:36:03;169.88;;;157.40;;
58972;SDS011;44750;52.040;7.472;2022-07-06T15:41:03;99.88;;;92.57;;
58972;SDS011;44750;52.040;7.472;2022-07-06T15:46:03;108.38;;;100.15;;
58972;SDS011;44750;52.040;7.472;2022-07-06T15:51:04;96.10;;;88.80;;
58972;SDS011;44750;52.040;7.472;2022-07-06T15:56:04;91.33;;;84.37;;
58972;SDS011;44750;52.040;7.472;2022-07-06T16:01:04;126.35;;;116.85;;
58972;SDS011;44750;52.040;7.472;2022-07-06T16:06:05;101.07;;;93.57;;
58972;SDS011;44750;52.040;7.472;2022-07-06T16:11:06;108.47;;;100.15;;
58972;SDS011;44750;52.040;7.472;2022-07-06T16:16:06;107.00;;;98.97;;
58972;SDS011;44750;52.040;7.472;2022-07-06T16:21:07;111.28;;;102.95;;
58972;SDS011;44750;52.040;7.472;2022-07-06T16:26:07;94.38;;;87.47;;
58972;SDS011;44750;52.040;7.472;2022-07-06T16:31:08;116.57;;;107.85;;
58972;SDS011;44750;52.040;7.472;2022-07-06T16:36:08;99.57;;;92.15;;
58972;SDS011;44750;52.040;7.472;2022-07-06T16:41:09;112.43;;;104.07;;
58972;SDS011;44750;52.040;7.472;2022-07-06T16:46:10;172.10;;;159.20;;
58972;SDS011;44750;52.040;7.472;2022-07-06T16:51:10;136.40;;;126.07;;
58972;SDS011;44750;52.040;7.472;2022-07-06T16:56:10;157.57;;;145.90;;
58972;SDS011;44750;52.040;7.472;2022-07-06T17:01:11;169.93;;;158.27;;
58972;SDS011;44750;52.040;7.472;2022-07-06T17:06:11;157.30;;;146.10;;
58972;SDS011;44750;52.040;7.472;2022-07-06T17:11:11;138.40;;;128.68;;
58972;SDS011;44750;52.040;7.472;2022-07-06T17:16:12;137.77;;;127.70;;
58972;SDS011;44750;52.040;7.472;2022-07-06T17:21:13;134.55;;;124.90;;
58972;SDS011;44750;52.040;7.472;2022-07-06T17:26:13;144.20;;;133.88;;
58972;SDS011;44750;52.040;7.472;2022-07-06T17:31:13;149.68;;;138.70;;
58972;SDS011;44750;52.040;7.472;2022-07-06T17:36:14;143.90;;;132.88;;
58972;SDS011;44750;52.040;7.472;2022-07-06T17:41:15;133.57;;;123.78;;
58972;SDS011;44750;52.040;7.472;2022-07-06T17:46:15;114.68;;;105.72;;
58972;SDS011;44750;52.040;7.472;2022-07-06T17:51:16;122.78;;;113.45;;
58972;SDS011;44750;52.040;7.472;2022-07-06T17:56:16;127.97;;;118.47;;
58972;SDS011;44750;52.040;7.472;2022-07-06T18:01:16;140.57;;;130.18;;
58972;SDS011;44750;52.040;7.472;2022-07-06T18:06:16;205.85;;;190.82;;
58972;SDS011;44750;52.040;7.472;2022-07-06T18:11:17;186.70;;;172.85;;
58972;SDS011;44750;52.040;7.472;2022-07-06T18:16:17;121.13;;;111.73;;
58972;SDS011;44750;52.040;7.472;2022-07-06T18:21:17;94.05;;;86.70;;
58972;SDS011;44750;52.040;7.472;2022-07-06T18:26:17;99.97;;;92.20;;
58972;SDS011;44750;52.040;7.472;2022-07-06T18:31:17;92.13;;;84.82;;
58972;SDS011;44750;52.040;7.472;2022-07-06T18:36:18;92.15;;;84.75;;
58972;SDS011;44750;52.040;7.472;2022-07-06T18:41:18;97.65;;;90.00;;
58972;SDS011;44750;52.040;7.472;2022-07-06T18:46:18;109.27;;;100.40;;
58972;SDS011;44750;52.040;7.472;2022-07-06T18:51:18;117.90;;;108.40;;
58972;SDS011;44750;52.040;7.472;2022-07-06T18:56:19;134.32;;;123.68;;
58972;SDS011;44750;52.040;7.472;2022-07-06T19:01:19;107.35;;;98.97;;
58972;SDS011;44750;52.040;7.472;2022-07-06T19:06:19;117.50;;;108.07;;
58972;SDS011;44750;52.040;7.472;2022-07-06T19:11:20;127.85;;;117.88;;
58972;SDS011;44750;52.040;7.472;2022-07-06T19:16:20;114.63;;;105.45;;
58972;SDS011;44750;52.040;7.472;2022-07-06T19:21:20;103.68;;;95.32;;
58972;SDS011;44750;52.040;7.472;2022-07-06T19:26:20;104.53;;;96.28;;
58972;SDS011;44750;52.040;7.472;2022-07-06T19:31:21;101.00;;;92.95;;
58972;SDS011;44750;52.040;7.472;2022-07-06T19:36:21;95.70;;;87.53;;
58972;SDS011;44750;52.040;7.472;2022-07-06T19:41:21;108.80;;;99.87;;
58972;SDS011;44750;52.040;7.472;2022-07-06T19:46:22;98.15;;;90.30;;
58972;SDS011;44750;52.040;7.472;2022-07-06T19:51:23;101.68;;;93.35;;
58972;SDS011;44750;52.040;7.472;2022-07-06T19:56:23;99.67;;;91.10;;
58972;SDS011;44750;52.040;7.472;2022-07-06T20:01:24;98.45;;;90.22;;
58972;SDS011;44750;52.040;7.472;2022-07-06T20:06:24;106.97;;;97.78;;
58972;SDS011;44750;52.040;7.472;2022-07-06T20:11:34;100.77;;;92.33;;
58972;SDS011;44750;52.040;7.472;2022-07-06T20:16:34;107.95;;;99.13;;
58972;SDS011;44750;52.040;7.472;2022-07-06T20:21:35;91.57;;;84.13;;
58972;SDS011;44750;52.040;7.472;2022-07-06T20:26:35;98.83;;;90.63;;
58972;SDS011;44750;52.040;7.472;2022-07-06T20:31:35;106.63;;;97.95;;
58972;SDS011;44750;52.040;7.472;2022-07-06T20:36:36;108.60;;;99.18;;
58972;SDS011;44750;52.040;7.472;2022-07-06T20:41:36;118.93;;;108.87;;
58972;SDS011;44750;52.040;7.472;2022-07-06T20:46:36;109.32;;;100.30;;
58972;SDS011;44750;52.040;7.472;2022-07-06T20:51:36;131.70;;;120.80;;
58972;SDS011;44750;52.040;7.472;2022-07-06T20:56:37;175.98;;;161.98;;
58972;SDS011;44750;52.040;7.472;2022-07-06T21:01:37;159.45;;;146.40;;
58972;SDS011;44750;52.040;7.472;2022-07-06T21:06:37;168.02;;;153.90;;
58972;SDS011;44750;52.040;7.472;2022-07-06T21:11:37;168.33;;;154.43;;
58972;SDS011;44750;52.040;7.472;2022-07-06T21:16:38;197.77;;;182.15;;
58972;SDS011;44750;52.040;7.472;2022-07-06T21:21:38;173.45;;;159.23;;
58972;SDS011;44750;52.040;7.472;2022-07-06T21:26:38;172.52;;;158.38;;
58972;SDS011;44750;52.040;7.472;2022-07-06T21:31:38;192.10;;;177.23;;
58972;SDS011;44750;52.040;7.472;2022-07-06T21:36:39;177.43;;;163.03;;
58972;SDS011;44750;52.040;7.472;2022-07-06T21:41:39;190.55;;;175.05;;
58972;SDS011;44750;52.040;7.472;2022-07-06T21:46:39;187.60;;;172.40;;
58972;SDS011;44750;52.040;7.472;2022-07-06T21:51:39;210.98;;;194.40;;
58972;SDS011;44750;52.040;7.472;2022-07-06T21:56:39;215.65;;;199.02;;
58972;SDS011;44750;52.040;7.472;2022-07-06T22:01:40;202.65;;;186.70;;
58972;SDS011;44750;52.040;7.472;2022-07-06T22:06:40;173.75;;;159.82;;
58972;SDS011;44750;52.040;7.472;2022-07-06T22:11:40;180.00;;;165.15;;
58972;SDS011;44750;52.040;7.472;2022-07-06T22:16:40;156.75;;;143.55;;
58972;SDS011;44750;52.040;7.472;2022-07-06T22:21:40;171.95;;;157.75;;
58972;SDS011;44750;52.040;7.472;2022-07-06T22:26:41;138.15;;;126.50;;
58972;SDS011;44750;52.040;7.472;2022-07-06T22:31:41;147.80;;;135.45;;
58972;SDS011;44750;52.040;7.472;2022-07-06T22:36:42;125.55;;;115.03;;
58972;SDS011;44750;52.040;7.472;2022-07-06T22:41:42;135.60;;;124.27;;
58972;SDS011;44750;52.040;7.472;2022-07-06T22:46:42;124.17;;;113.63;;
58972;SDS011;44750;52.040;7.472;2022-07-06T22:51:43;120.20;;;109.73;;
58972;SDS011;44750;52.040;7.472;2022-07-06T22:56:43;139.13;;;127.65;;
58972;SDS011;44750;52.040;7.472;2022-07-06T23:01:43;132.85;;;121.82;;
58972;SDS011;44750;52.040;7.472;2022-07-06T23:06:45;132.90;;;121.43;;
58972;SDS011;44750;52.040;7.472;2022-07-06T23:11:46;135.48;;;124.07;;
58972;SDS011;44750;52.040;7.472;2022-07-06T23:16:46;150.80;;;137.93;;
58972;SDS011;44750;52.040;7.472;2022-07-06T23:21:46;143.45;;;131.02;;
58972;SDS011;44750;52.040;7.472;2022-07-06T23:26:46;143.20;;;131.27;;
58972;SDS011;44750;52.040;7.472;2022-07-06T23:31:46;148.85;;;136.23;;
58972;SDS011;44750;52.040;7.472;2022-07-06T23:36:47;152.68;;;140.13;;
58972;SDS011;44750;52.040;7.472;2022-07-06T23:41:47;159.32;;;146.25;;
58972;SDS011;44750;52.040;7.472;2022-07-06T23:46:47;160.32;;;147.30;;
58972;SDS011;44750;52.040;7.472;2022-07-06T23:51:47;174.25;;;160.65;;
58972;SDS011;44750;52.040;7.472;2022-07-06T23:56:48;185.38;;;170.77;;
